Youngstown, NY (14174)

10:03 AM EST on February 14, 2016 (GMT -0500)
Suitorville at Glenvale | | Change Station
CLOSE
Current Station
Personal Weather Station
Location: Youngstown, NY
Elevation: 305 ft
Nearby Weather Stations

Elev 305 ft 43.25 °N, 79.04 °W | Updated 12 seconds ago

Partly Cloudy
Partly Cloudy
3.0 °F
Feels Like 3 °F
N
1.1
Wind Variable Wind from SW
Gusts 2.5 mph

Today
High -- | Low -- °F
--% Chance of Precip.
Yesterday
High -- | Low -- °F
Precip. -- in
Pressure 30.63 in
Visibility 10.0 miles
Clouds Few 1800 ft
Few 2700 ft
Windchill 3 °F
Dew Point -14 °F
Humidity 45%
Rainfall 0.00 in
Snow Depth Not available.
7:16 AM 5:45 PM
Waxing Crescent, 42% visible
METAR KIAG 141453Z 15006KT 10SM FEW018 FEW027 M18/M23 A3053 RMK AO2 SNB19E42 SLP370 P0000 60000 T11781228 50004 $
Pressure 30.63 in
Visibility 10.0 miles
Clouds Few 1800 ft
Few 2700 ft
Windchill 3 °F
Dew Point -14 °F
Humidity 45%
Rainfall 0.00 in
Snow Depth Not available.
7:16 AM 5:45 PM
Waxing Crescent, 42% visible
METAR KIAG 141453Z 15006KT 10SM FEW018 FEW027 M18/M23 A3053 RMK AO2 SNB19E42 SLP370 P0000 60000 T11781228 50004 $

10-Day Weather Forecast

Almanac

Astronomy

Feb. 14, 2016 Rise Set
Actual Time
Civil Twilight
Nautical Twilight
Astronomical Twilight
Moon
Length of Visible Light
Length of Day
Tomorrow will be .
, % of the Moon is Illuminated

Today's Extremes

State Highs State Lows

Community

WunderPhotos

Upload Photos

1,892,782 photos uploaded!

WunderBlog® & News

Nearby

Air Quality

  Air Quality AQ Index Pollutant
Not available.

Snow Depth

Station Depth Elevation

Earthquake Activity

City Distance Mag. Time & Date
Minimum magnitude displayed is 2.5.

Coastal Water Temperatures

Place Temperature

Stations

Nearby Weather Stations

Station Location Temp. Windchill Dew Point Humidity Wind Precip. Elev Updated Type
                   

Watches & Warnings

There are currently no watches in effect.